Lea County Regional Airport
KHOB : now visible

Airfield :











YOU CAN JOIN US ON...

 
LOGIN :

Register | Disclaimer

   EN    FR    IT 

 









Legend :    VFR   Marginal VFR   IFR   Intensive IFR   Very Intensive IFR
Visi :
Ceiling :
>= 8 km
>= 3000ft
5 to 8 km
1000 to 3000 ft
1500m to 5 km
500 to 1000 ft
800 to 1500m
200 to 500 ft
< 800m
< 200 ft
Symbols :   Thunderstorms  Fog  Heavy snow  Heavy precipitations  Wind > 20 kt






- Airport Elevation : 3661 ft


KHOB - Lea County Regional

CURRENT METAR :
  • 100255Z AUTO 15009G16KT 10SM CLR 34/10 A2990 RMK AO2

EXPIRED METARs :
  • 100235Z AUTO 16010KT 10SM CLR 34/10 A2989 RMK AO2
  • 100215Z AUTO 15011KT 10SM CLR 35/10 A2988 RMK AO2
  • 100155Z AUTO 14011KT 10SM CLR 35/09 A2988 RMK AO2
  • 100135Z AUTO 14012KT 10SM CLR 37/09 A2988 RMK AO2
  • 100115Z AUTO 15010KT 10SM CLR 38/08 A2988 RMK AO2
  • 100055Z AUTO 14007G17KT 10SM CLR 38/08 A2988 RMK AO2
  • 100035Z AUTO 14012KT 10SM CLR 39/07 A2987 RMK AO2
  • 100015Z AUTO 16006KT 10SM CLR 39/06 A2987 RMK AO2

TAF KHOB
Valid from the 10 at 00:00 until the 11 at 00:00 UTC


092328Z 1000/1024 15010KT P6SM FEW100 SCT200
FM100700 18007KT P6SM FEW200
KZFW FIR / North America



MET'MAP, your aeronautical weather chart ! - Copyright ORBIFLY December 2007 - Disclaimer

ORBIFLY MET'MAP TEAM :

Programming & Development : Alexandra Zaïnal
Concept & original design : Baudouin d'Aumeries
Assistance for programming : Marc-Olivier Méhu
Technical & hardware support : Manuel Goepfert

Contact : metmap@orbifly.com




SOURCES & CREDITS :

   NOAA       Earth
Advisory